sensor_id;sensor_type;location;lat;lon;timestamp;P1;durP1;ratioP1;P2;durP2;ratioP2
54438;SDS011;40347;53.848;27.498;2022-10-12T00:03:51;12.9;;;3.6;;
54438;SDS011;40347;53.848;27.498;2022-10-12T00:08:36;13.2;;;3.4;;
54438;SDS011;40347;53.848;27.498;2022-10-12T00:13:47;12;;;3.6;;
54438;SDS011;40347;53.848;27.498;2022-10-12T00:18:48;12.6;;;3.9;;
54438;SDS011;40347;53.848;27.498;2022-10-12T00:23:45;12.5;;;3.5;;
54438;SDS011;40347;53.848;27.498;2022-10-12T00:28:35;9.3;;;3.2;;
54438;SDS011;40347;53.848;27.498;2022-10-12T00:34:02;10.8;;;3.5;;
54438;SDS011;40347;53.848;27.498;2022-10-12T00:38:43;10.6;;;3.2;;
54438;SDS011;40347;53.848;27.498;2022-10-12T00:43:44;9.5;;;3.1;;
54438;SDS011;40347;53.848;27.498;2022-10-12T00:48:50;10.3;;;3;;
54438;SDS011;40347;53.848;27.498;2022-10-12T00:53:56;9.6;;;3.1;;
54438;SDS011;40347;53.848;27.498;2022-10-12T00:58:35;9.5;;;3.2;;
54438;SDS011;40347;53.848;27.498;2022-10-12T01:03:57;12.5;;;2.9;;
54438;SDS011;40347;53.848;27.498;2022-10-12T01:08:35;11.6;;;3.3;;
54438;SDS011;40347;53.848;27.498;2022-10-12T01:13:35;9.3;;;2.8;;
54438;SDS011;40347;53.848;27.498;2022-10-12T01:18:38;13.3;;;3.2;;
54438;SDS011;40347;53.848;27.498;2022-10-12T01:23:42;10.7;;;2.7;;
54438;SDS011;40347;53.848;27.498;2022-10-12T01:28:45;9.3;;;2.7;;
54438;SDS011;40347;53.848;27.498;2022-10-12T01:33:44;12.2;;;2.9;;
54438;SDS011;40347;53.848;27.498;2022-10-12T01:38:38;10.4;;;2.7;;
54438;SDS011;40347;53.848;27.498;2022-10-12T01:43:42;10.5;;;2.9;;
54438;SDS011;40347;53.848;27.498;2022-10-12T01:48:35;10.4;;;3.3;;
54438;SDS011;40347;53.848;27.498;2022-10-12T01:53:55;9.4;;;3;;
54438;SDS011;40347;53.848;27.498;2022-10-12T01:58:55;10.3;;;3;;
54438;SDS011;40347;53.848;27.498;2022-10-12T02:03:36;13.4;;;3.7;;
54438;SDS011;40347;53.848;27.498;2022-10-12T02:08:36;11.4;;;3.1;;
54438;SDS011;40347;53.848;27.498;2022-10-12T02:13:37;10.3;;;2.8;;
54438;SDS011;40347;53.848;27.498;2022-10-12T02:18:35;10.1;;;2.7;;
54438;SDS011;40347;53.848;27.498;2022-10-12T02:23:45;10.3;;;2.6;;
54438;SDS011;40347;53.848;27.498;2022-10-12T02:28:55;9.3;;;2.5;;
54438;SDS011;40347;53.848;27.498;2022-10-12T02:33:37;10.8;;;3.3;;
54438;SDS011;40347;53.848;27.498;2022-10-12T02:38:45;9.8;;;3.1;;
54438;SDS011;40347;53.848;27.498;2022-10-12T02:43:49;10.9;;;2.8;;
54438;SDS011;40347;53.848;27.498;2022-10-12T02:48:43;9.7;;;2.7;;
54438;SDS011;40347;53.848;27.498;2022-10-12T02:53:35;13;;;3.2;;
54438;SDS011;40347;53.848;27.498;2022-10-12T02:58:44;10.5;;;2.9;;
54438;SDS011;40347;53.848;27.498;2022-10-12T03:03:35;9.1;;;2.6;;
54438;SDS011;40347;53.848;27.498;2022-10-12T03:08:35;6.8;;;2.5;;
54438;SDS011;40347;53.848;27.498;2022-10-12T03:13:35;8.3;;;2.5;;
54438;SDS011;40347;53.848;27.498;2022-10-12T03:18:51;10.3;;;3;;
54438;SDS011;40347;53.848;27.498;2022-10-12T03:23:43;10;;;2.9;;
54438;SDS011;40347;53.848;27.498;2022-10-12T03:28:43;10.9;;;2.9;;
54438;SDS011;40347;53.848;27.498;2022-10-12T03:33:47;10.9;;;3;;
54438;SDS011;40347;53.848;27.498;2022-10-12T03:38:47;11.2;;;3.1;;
54438;SDS011;40347;53.848;27.498;2022-10-12T03:43:43;10.1;;;2.8;;
54438;SDS011;40347;53.848;27.498;2022-10-12T03:48:35;13.5;;;2.9;;
54438;SDS011;40347;53.848;27.498;2022-10-12T03:53:35;11.1;;;3;;
54438;SDS011;40347;53.848;27.498;2022-10-12T03:58:35;10.2;;;3;;
54438;SDS011;40347;53.848;27.498;2022-10-12T04:03:35;10.4;;;2.9;;
54438;SDS011;40347;53.848;27.498;2022-10-12T04:08:45;10.7;;;2.9;;
54438;SDS011;40347;53.848;27.498;2022-10-12T04:13:35;9.9;;;3;;
54438;SDS011;40347;53.848;27.498;2022-10-12T04:18:53;11;;;2.7;;
54438;SDS011;40347;53.848;27.498;2022-10-12T04:23:47;10.6;;;3;;
54438;SDS011;40347;53.848;27.498;2022-10-12T04:28:35;9.9;;;2.8;;
54438;SDS011;40347;53.848;27.498;2022-10-12T04:33:45;13.6;;;3;;
54438;SDS011;40347;53.848;27.498;2022-10-12T04:38:35;11.9;;;3;;
54438;SDS011;40347;53.848;27.498;2022-10-12T04:43:35;11.3;;;3.1;;
54438;SDS011;40347;53.848;27.498;2022-10-12T04:48:35;11.4;;;3.5;;
54438;SDS011;40347;53.848;27.498;2022-10-12T04:53:45;12.5;;;3.4;;
54438;SDS011;40347;53.848;27.498;2022-10-12T04:59:01;11.9;;;4;;
54438;SDS011;40347;53.848;27.498;2022-10-12T05:03:35;14.2;;;3.8;;
54438;SDS011;40347;53.848;27.498;2022-10-12T05:08:51;11.3;;;3.6;;
54438;SDS011;40347;53.848;27.498;2022-10-12T05:13:35;13.6;;;3.4;;
54438;SDS011;40347;53.848;27.498;2022-10-12T05:18:55;11.6;;;3.3;;
54438;SDS011;40347;53.848;27.498;2022-10-12T05:23:35;13.2;;;3.4;;
54438;SDS011;40347;53.848;27.498;2022-10-12T05:28:43;9.8;;;3.2;;
54438;SDS011;40347;53.848;27.498;2022-10-12T05:33:35;11.6;;;3.5;;
54438;SDS011;40347;53.848;27.498;2022-10-12T05:38:43;11.9;;;3.6;;
54438;SDS011;40347;53.848;27.498;2022-10-12T05:43:35;11.8;;;3.7;;
54438;SDS011;40347;53.848;27.498;2022-10-12T05:49:05;8.9;;;3.1;;
54438;SDS011;40347;53.848;27.498;2022-10-12T05:53:47;8.2;;;3;;
54438;SDS011;40347;53.848;27.498;2022-10-12T05:58:35;11.2;;;3.1;;
54438;SDS011;40347;53.848;27.498;2022-10-12T06:03:35;11.2;;;3.1;;
54438;SDS011;40347;53.848;27.498;2022-10-12T06:08:57;10.3;;;3;;
54438;SDS011;40347;53.848;27.498;2022-10-12T06:13:47;9.8;;;3;;
54438;SDS011;40347;53.848;27.498;2022-10-12T06:18:55;9.3;;;3;;
54438;SDS011;40347;53.848;27.498;2022-10-12T06:23:35;9;;;3;;
54438;SDS011;40347;53.848;27.498;2022-10-12T06:28:43;8.3;;;2.7;;
54438;SDS011;40347;53.848;27.498;2022-10-12T06:33:43;7.3;;;2.7;;
54438;SDS011;40347;53.848;27.498;2022-10-12T06:38:35;8.2;;;2.6;;
54438;SDS011;40347;53.848;27.498;2022-10-12T06:43:35;8.7;;;2.8;;
54438;SDS011;40347;53.848;27.498;2022-10-12T06:48:35;7.4;;;2.6;;
54438;SDS011;40347;53.848;27.498;2022-10-12T06:54:07;8.4;;;2.6;;
54438;SDS011;40347;53.848;27.498;2022-10-12T06:58:52;9.3;;;2.8;;
54438;SDS011;40347;53.848;27.498;2022-10-12T07:03:55;9.5;;;3;;
54438;SDS011;40347;53.848;27.498;2022-10-12T07:08:37;8.6;;;2.7;;
54438;SDS011;40347;53.848;27.498;2022-10-12T07:13:43;9.4;;;2.9;;
54438;SDS011;40347;53.848;27.498;2022-10-12T07:18:51;9;;;3.3;;
54438;SDS011;40347;53.848;27.498;2022-10-12T07:23:43;9.2;;;3;;
54438;SDS011;40347;53.848;27.498;2022-10-12T07:28:35;8;;;2.6;;
54438;SDS011;40347;53.848;27.498;2022-10-12T07:33:45;9;;;2.8;;
54438;SDS011;40347;53.848;27.498;2022-10-12T07:38:45;8.5;;;2.6;;
54438;SDS011;40347;53.848;27.498;2022-10-12T07:43:35;7.9;;;2.4;;
54438;SDS011;40347;53.848;27.498;2022-10-12T07:48:35;14.3;;;2.6;;
54438;SDS011;40347;53.848;27.498;2022-10-12T07:53:35;7.9;;;2.4;;
54438;SDS011;40347;53.848;27.498;2022-10-12T07:58:35;7.2;;;2.5;;
54438;SDS011;40347;53.848;27.498;2022-10-12T08:03:35;8.6;;;2.7;;
54438;SDS011;40347;53.848;27.498;2022-10-12T08:08:48;9;;;2.6;;
54438;SDS011;40347;53.848;27.498;2022-10-12T08:13:51;8.8;;;2.5;;
54438;SDS011;40347;53.848;27.498;2022-10-12T08:18:35;11.3;;;2.7;;
54438;SDS011;40347;53.848;27.498;2022-10-12T08:23:45;10.3;;;2.8;;
54438;SDS011;40347;53.848;27.498;2022-10-12T08:28:45;9.2;;;2.7;;
54438;SDS011;40347;53.848;27.498;2022-10-12T08:33:35;9.3;;;2.5;;
54438;SDS011;40347;53.848;27.498;2022-10-12T08:38:36;10.6;;;2.7;;
54438;SDS011;40347;53.848;27.498;2022-10-12T08:43:51;9.5;;;2.9;;
54438;SDS011;40347;53.848;27.498;2022-10-12T08:48:38;10.8;;;3;;
54438;SDS011;40347;53.848;27.498;2022-10-12T08:53:38;11.3;;;2.7;;
54438;SDS011;40347;53.848;27.498;2022-10-12T08:58:46;8.4;;;2.4;;
54438;SDS011;40347;53.848;27.498;2022-10-12T09:04:03;6.7;;;2.3;;
54438;SDS011;40347;53.848;27.498;2022-10-12T09:08:41;7.3;;;2.3;;
54438;SDS011;40347;53.848;27.498;2022-10-12T09:13:39;7.4;;;2.1;;
54438;SDS011;40347;53.848;27.498;2022-10-12T09:18:36;9.5;;;2.2;;
54438;SDS011;40347;53.848;27.498;2022-10-12T09:23:36;8.3;;;2.2;;
54438;SDS011;40347;53.848;27.498;2022-10-12T09:28:49;7.7;;;2.2;;
54438;SDS011;40347;53.848;27.498;2022-10-12T09:33:37;8.7;;;2.3;;
54438;SDS011;40347;53.848;27.498;2022-10-12T09:38:53;6.5;;;1.8;;
54438;SDS011;40347;53.848;27.498;2022-10-12T09:43:35;8.7;;;2;;
54438;SDS011;40347;53.848;27.498;2022-10-12T09:48:35;7.8;;;2.1;;
54438;SDS011;40347;53.848;27.498;2022-10-12T09:54:00;9.7;;;3;;
54438;SDS011;40347;53.848;27.498;2022-10-12T09:58:38;12.6;;;2.8;;
54438;SDS011;40347;53.848;27.498;2022-10-12T10:03:35;10.8;;;2.7;;
54438;SDS011;40347;53.848;27.498;2022-10-12T10:08:39;8.9;;;2.4;;
54438;SDS011;40347;53.848;27.498;2022-10-12T10:13:35;9;;;2.2;;
54438;SDS011;40347;53.848;27.498;2022-10-12T10:18:48;9.4;;;2.2;;
54438;SDS011;40347;53.848;27.498;2022-10-12T10:23:48;10.1;;;2.5;;
54438;SDS011;40347;53.848;27.498;2022-10-12T10:29:26;9.9;;;2.4;;
54438;SDS011;40347;53.848;27.498;2022-10-12T10:33:35;10.6;;;2.5;;
54438;SDS011;40347;53.848;27.498;2022-10-12T10:38:44;9.5;;;2.5;;
54438;SDS011;40347;53.848;27.498;2022-10-12T10:43:43;8.2;;;2.1;;
54438;SDS011;40347;53.848;27.498;2022-10-12T10:49:07;9.5;;;1.9;;
54438;SDS011;40347;53.848;27.498;2022-10-12T10:53:46;8.6;;;1.9;;
54438;SDS011;40347;53.848;27.498;2022-10-12T10:59:01;10;;;2.3;;
54438;SDS011;40347;53.848;27.498;2022-10-12T11:03:48;8.4;;;1.9;;
54438;SDS011;40347;53.848;27.498;2022-10-12T11:08:47;8.5;;;2;;
54438;SDS011;40347;53.848;27.498;2022-10-12T11:13:50;12.7;;;2;;
54438;SDS011;40347;53.848;27.498;2022-10-12T11:18:37;8.4;;;1.9;;
54438;SDS011;40347;53.848;27.498;2022-10-12T11:23:37;8.1;;;2;;
54438;SDS011;40347;53.848;27.498;2022-10-12T11:29:03;8.9;;;2.1;;
54438;SDS011;40347;53.848;27.498;2022-10-12T11:33:37;9.1;;;2.2;;
54438;SDS011;40347;53.848;27.498;2022-10-12T11:38:58;7;;;1.7;;
54438;SDS011;40347;53.848;27.498;2022-10-12T11:43:37;7.7;;;2.3;;
54438;SDS011;40347;53.848;27.498;2022-10-12T11:48:37;8;;;2.2;;
54438;SDS011;40347;53.848;27.498;2022-10-12T11:53:47;7.7;;;1.9;;
54438;SDS011;40347;53.848;27.498;2022-10-12T11:58:36;7.5;;;1.7;;
54438;SDS011;40347;53.848;27.498;2022-10-12T12:04:01;8.1;;;1.7;;
54438;SDS011;40347;53.848;27.498;2022-10-12T12:08:54;9.1;;;2;;
54438;SDS011;40347;53.848;27.498;2022-10-12T12:14:20;6;;;1.8;;
54438;SDS011;40347;53.848;27.498;2022-10-12T12:19:53;6.1;;;1.8;;
54438;SDS011;40347;53.848;27.498;2022-10-12T12:23:52;5.5;;;1.6;;
54438;SDS011;40347;53.848;27.498;2022-10-12T12:29:08;5.7;;;1.5;;
54438;SDS011;40347;53.848;27.498;2022-10-12T12:33:36;5.9;;;1.5;;
54438;SDS011;40347;53.848;27.498;2022-10-12T12:38:36;9.9;;;1.8;;
54438;SDS011;40347;53.848;27.498;2022-10-12T12:43:50;6.3;;;1.7;;
54438;SDS011;40347;53.848;27.498;2022-10-12T12:49:23;6.3;;;1.5;;
54438;SDS011;40347;53.848;27.498;2022-10-12T12:54:00;6.9;;;2;;
54438;SDS011;40347;53.848;27.498;2022-10-12T12:58:58;7.4;;;2.1;;
54438;SDS011;40347;53.848;27.498;2022-10-12T13:04:49;8.6;;;1.7;;
54438;SDS011;40347;53.848;27.498;2022-10-12T13:08:52;8.1;;;1.7;;
54438;SDS011;40347;53.848;27.498;2022-10-12T13:13:41;7.6;;;1.8;;
54438;SDS011;40347;53.848;27.498;2022-10-12T13:18:40;5.1;;;1.7;;
54438;SDS011;40347;53.848;27.498;2022-10-12T13:23:35;5.7;;;1.7;;
54438;SDS011;40347;53.848;27.498;2022-10-12T13:28:45;7.5;;;1.9;;
54438;SDS011;40347;53.848;27.498;2022-10-12T13:34:00;8.2;;;2.2;;
54438;SDS011;40347;53.848;27.498;2022-10-12T13:38:35;9.4;;;2.3;;
54438;SDS011;40347;53.848;27.498;2022-10-12T13:43:50;6.6;;;2;;
54438;SDS011;40347;53.848;27.498;2022-10-12T13:48:35;7.7;;;2.1;;
54438;SDS011;40347;53.848;27.498;2022-10-12T13:53:47;9.4;;;2.3;;
54438;SDS011;40347;53.848;27.498;2022-10-12T13:58:35;7.4;;;2.4;;
54438;SDS011;40347;53.848;27.498;2022-10-12T14:03:37;5.1;;;2.2;;
54438;SDS011;40347;53.848;27.498;2022-10-12T14:08:35;7.3;;;2.3;;
54438;SDS011;40347;53.848;27.498;2022-10-12T14:13:35;8.4;;;2.6;;
54438;SDS011;40347;53.848;27.498;2022-10-12T14:18:46;7.9;;;2.5;;
54438;SDS011;40347;53.848;27.498;2022-10-12T14:23:54;7.8;;;2.4;;
54438;SDS011;40347;53.848;27.498;2022-10-12T14:28:43;6.5;;;2.5;;
54438;SDS011;40347;53.848;27.498;2022-10-12T14:33:35;9.5;;;2.7;;
54438;SDS011;40347;53.848;27.498;2022-10-12T14:38:37;5.5;;;2.2;;
54438;SDS011;40347;53.848;27.498;2022-10-12T14:43:43;9.3;;;2.4;;
54438;SDS011;40347;53.848;27.498;2022-10-12T14:49:10;9;;;2.8;;
54438;SDS011;40347;53.848;27.498;2022-10-12T14:53:59;7.3;;;2.6;;
54438;SDS011;40347;53.848;27.498;2022-10-12T14:58:35;7.6;;;2.5;;
54438;SDS011;40347;53.848;27.498;2022-10-12T15:03:35;8.4;;;2.6;;
54438;SDS011;40347;53.848;27.498;2022-10-12T15:08:43;8;;;2.5;;
54438;SDS011;40347;53.848;27.498;2022-10-12T15:13:36;6.3;;;2.3;;
54438;SDS011;40347;53.848;27.498;2022-10-12T15:18:35;8.6;;;2.8;;
54438;SDS011;40347;53.848;27.498;2022-10-12T15:23:35;11.3;;;2.9;;
54438;SDS011;40347;53.848;27.498;2022-10-12T15:28:55;7.6;;;2.9;;
54438;SDS011;40347;53.848;27.498;2022-10-12T15:33:35;9;;;3.1;;
54438;SDS011;40347;53.848;27.498;2022-10-12T15:38:39;9.3;;;3;;
54438;SDS011;40347;53.848;27.498;2022-10-12T15:43:57;11.3;;;3.3;;
54438;SDS011;40347;53.848;27.498;2022-10-12T15:48:35;10.1;;;2.9;;
54438;SDS011;40347;53.848;27.498;2022-10-12T15:53:35;8.8;;;2.9;;
54438;SDS011;40347;53.848;27.498;2022-10-12T15:58:35;11.2;;;3;;
54438;SDS011;40347;53.848;27.498;2022-10-12T16:04:00;10.8;;;2.8;;
54438;SDS011;40347;53.848;27.498;2022-10-12T16:08:57;8.9;;;2.7;;
54438;SDS011;40347;53.848;27.498;2022-10-12T16:13:49;9.6;;;3.3;;
54438;SDS011;40347;53.848;27.498;2022-10-12T16:18:43;12.2;;;5.3;;
54438;SDS011;40347;53.848;27.498;2022-10-12T16:23:36;11.6;;;4.2;;
54438;SDS011;40347;53.848;27.498;2022-10-12T16:29:01;7.9;;;3;;
54438;SDS011;40347;53.848;27.498;2022-10-12T16:33:51;9.9;;;2.8;;
54438;SDS011;40347;53.848;27.498;2022-10-12T16:38:35;7.3;;;2.5;;
54438;SDS011;40347;53.848;27.498;2022-10-12T16:43:43;9.3;;;2.4;;
54438;SDS011;40347;53.848;27.498;2022-10-12T16:48:51;7.1;;;2.2;;
54438;SDS011;40347;53.848;27.498;2022-10-12T16:53:43;7;;;2.3;;
54438;SDS011;40347;53.848;27.498;2022-10-12T16:58:35;6.6;;;2;;
54438;SDS011;40347;53.848;27.498;2022-10-12T17:03:35;6.6;;;2;;
54438;SDS011;40347;53.848;27.498;2022-10-12T17:08:35;6.1;;;1.9;;
54438;SDS011;40347;53.848;27.498;2022-10-12T17:13:36;5.2;;;1.7;;
54438;SDS011;40347;53.848;27.498;2022-10-12T17:18:43;5.2;;;1.7;;
54438;SDS011;40347;53.848;27.498;2022-10-12T17:23:36;4.9;;;1.8;;
54438;SDS011;40347;53.848;27.498;2022-10-12T17:28:35;6.4;;;1.8;;
54438;SDS011;40347;53.848;27.498;2022-10-12T17:33:43;5.4;;;1.9;;
54438;SDS011;40347;53.848;27.498;2022-10-12T17:38:36;5.6;;;1.9;;
54438;SDS011;40347;53.848;27.498;2022-10-12T17:43:43;7;;;1.9;;
54438;SDS011;40347;53.848;27.498;2022-10-12T17:48:55;6.8;;;2.1;;
54438;SDS011;40347;53.848;27.498;2022-10-12T17:53:57;6.5;;;2.1;;
54438;SDS011;40347;53.848;27.498;2022-10-12T17:58:36;6.5;;;2.1;;
54438;SDS011;40347;53.848;27.498;2022-10-12T18:03:43;5.6;;;2;;
54438;SDS011;40347;53.848;27.498;2022-10-12T18:08:43;7.4;;;2.4;;
54438;SDS011;40347;53.848;27.498;2022-10-12T18:13:36;7.4;;;2.5;;
54438;SDS011;40347;53.848;27.498;2022-10-12T18:18:52;6.4;;;2.5;;
54438;SDS011;40347;53.848;27.498;2022-10-12T18:23:36;6.7;;;2.4;;
54438;SDS011;40347;53.848;27.498;2022-10-12T18:28:44;7.6;;;2.6;;
54438;SDS011;40347;53.848;27.498;2022-10-12T18:33:35;8.1;;;2.9;;
54438;SDS011;40347;53.848;27.498;2022-10-12T18:39:00;7.3;;;2.7;;
54438;SDS011;40347;53.848;27.498;2022-10-12T18:43:42;8.8;;;2.7;;
54438;SDS011;40347;53.848;27.498;2022-10-12T18:48:36;9.6;;;2.9;;
54438;SDS011;40347;53.848;27.498;2022-10-12T18:53:35;8.4;;;2.7;;
54438;SDS011;40347;53.848;27.498;2022-10-12T18:58:44;9;;;3;;
54438;SDS011;40347;53.848;27.498;2022-10-12T19:03:36;8.9;;;2.8;;
54438;SDS011;40347;53.848;27.498;2022-10-12T19:08:35;9.1;;;3;;
54438;SDS011;40347;53.848;27.498;2022-10-12T19:13:49;9.2;;;2.8;;
54438;SDS011;40347;53.848;27.498;2022-10-12T19:18:42;9.3;;;2.8;;
54438;SDS011;40347;53.848;27.498;2022-10-12T19:23:52;8.9;;;2.8;;
54438;SDS011;40347;53.848;27.498;2022-10-12T19:28:52;8.7;;;2.8;;
54438;SDS011;40347;53.848;27.498;2022-10-12T19:33:36;8.2;;;2.8;;
54438;SDS011;40347;53.848;27.498;2022-10-12T19:38:36;7.5;;;2.6;;
54438;SDS011;40347;53.848;27.498;2022-10-12T19:43:52;8.2;;;2.7;;
54438;SDS011;40347;53.848;27.498;2022-10-12T19:48:52;9.6;;;2.8;;
54438;SDS011;40347;53.848;27.498;2022-10-12T19:54:08;8.7;;;2.7;;
54438;SDS011;40347;53.848;27.498;2022-10-12T19:58:52;7.7;;;2.5;;
54438;SDS011;40347;53.848;27.498;2022-10-12T20:03:44;8.3;;;2.5;;
54438;SDS011;40347;53.848;27.498;2022-10-12T20:09:08;6.9;;;2.5;;
54438;SDS011;40347;53.848;27.498;2022-10-12T20:13:36;7.9;;;2.7;;
54438;SDS011;40347;53.848;27.498;2022-10-12T20:18:52;8.6;;;2.8;;
54438;SDS011;40347;53.848;27.498;2022-10-12T20:23:36;7.7;;;2.5;;
54438;SDS011;40347;53.848;27.498;2022-10-12T20:28:36;6.8;;;2.2;;
54438;SDS011;40347;53.848;27.498;2022-10-12T20:33:44;6.3;;;2;;
54438;SDS011;40347;53.848;27.498;2022-10-12T20:38:36;7.4;;;2.1;;
54438;SDS011;40347;53.848;27.498;2022-10-12T20:43:53;9.7;;;2.3;;
54438;SDS011;40347;53.848;27.498;2022-10-12T20:48:36;6.2;;;2.2;;
54438;SDS011;40347;53.848;27.498;2022-10-12T20:53:52;7.2;;;2.2;;
54438;SDS011;40347;53.848;27.498;2022-10-12T20:58:52;8.1;;;2.1;;
54438;SDS011;40347;53.848;27.498;2022-10-12T21:03:36;7.9;;;2.2;;
54438;SDS011;40347;53.848;27.498;2022-10-12T21:08:47;6.5;;;2.1;;
54438;SDS011;40347;53.848;27.498;2022-10-12T21:13:36;7.8;;;2.1;;
54438;SDS011;40347;53.848;27.498;2022-10-12T21:18:36;8.9;;;2.2;;
54438;SDS011;40347;53.848;27.498;2022-10-12T21:23:36;6.2;;;2;;
54438;SDS011;40347;53.848;27.498;2022-10-12T21:28:56;6.3;;;2.1;;
54438;SDS011;40347;53.848;27.498;2022-10-12T21:33:36;6.2;;;2.2;;
54438;SDS011;40347;53.848;27.498;2022-10-12T21:38:36;6.6;;;2.3;;
54438;SDS011;40347;53.848;27.498;2022-10-12T21:43:36;6.2;;;2.2;;
54438;SDS011;40347;53.848;27.498;2022-10-12T21:48:36;6.9;;;2.2;;
54438;SDS011;40347;53.848;27.498;2022-10-12T21:54:06;6.8;;;2;;
54438;SDS011;40347;53.848;27.498;2022-10-12T21:58:36;6.9;;;1.9;;
54438;SDS011;40347;53.848;27.498;2022-10-12T22:13:44;7.5;;;2;;
54438;SDS011;40347;53.848;27.498;2022-10-12T22:18:44;6.8;;;2.1;;
54438;SDS011;40347;53.848;27.498;2022-10-12T22:23:54;7;;;2.3;;
54438;SDS011;40347;53.848;27.498;2022-10-12T22:28:44;5.7;;;2;;
54438;SDS011;40347;53.848;27.498;2022-10-12T22:33:56;6.1;;;1.8;;
54438;SDS011;40347;53.848;27.498;2022-10-12T22:38:46;5.2;;;1.7;;
54438;SDS011;40347;53.848;27.498;2022-10-12T22:43:36;5.4;;;1.7;;
54438;SDS011;40347;53.848;27.498;2022-10-12T22:48:36;4.7;;;1.7;;
54438;SDS011;40347;53.848;27.498;2022-10-12T22:53:44;3.2;;;1.4;;
54438;SDS011;40347;53.848;27.498;2022-10-12T22:58:51;4.1;;;1.6;;
54438;SDS011;40347;53.848;27.498;2022-10-12T23:03:48;4.7;;;1.7;;
54438;SDS011;40347;53.848;27.498;2022-10-12T23:08:36;7.2;;;1.9;;
54438;SDS011;40347;53.848;27.498;2022-10-12T23:13:44;4.5;;;1.8;;
54438;SDS011;40347;53.848;27.498;2022-10-12T23:18:36;5.1;;;1.9;;
54438;SDS011;40347;53.848;27.498;2022-10-12T23:23:54;5.7;;;1.9;;
54438;SDS011;40347;53.848;27.498;2022-10-12T23:28:46;7.2;;;2;;
54438;SDS011;40347;53.848;27.498;2022-10-12T23:33:36;6.6;;;1.9;;
54438;SDS011;40347;53.848;27.498;2022-10-12T23:38:36;6.8;;;2;;
54438;SDS011;40347;53.848;27.498;2022-10-12T23:43:46;6.4;;;2.1;;
54438;SDS011;40347;53.848;27.498;2022-10-12T23:48:46;9.1;;;2.1;;
54438;SDS011;40347;53.848;27.498;2022-10-12T23:53:36;9.4;;;2.6;;
54438;SDS011;40347;53.848;27.498;2022-10-12T23:59:02;6.2;;;2.1;;
